createdAt,value
2023-03-29T00:00:33.419Z,3.70
2023-03-29T00:03:02.837Z,4.28
2023-03-29T00:05:34.030Z,6.65
2023-03-29T00:08:04.571Z,5.28
2023-03-29T00:10:33.792Z,5.57
2023-03-29T00:13:02.548Z,4.38
2023-03-29T00:15:30.167Z,4.70
2023-03-29T00:17:58.218Z,4.30
2023-03-29T00:20:25.822Z,4.82
2023-03-29T00:22:53.369Z,3.90
2023-03-29T00:25:21.014Z,5.20
2023-03-29T00:27:48.644Z,4.15
2023-03-29T00:30:18.497Z,5.60
2023-03-29T00:32:46.254Z,5.07
2023-03-29T00:35:14.141Z,4.40
2023-03-29T00:37:41.976Z,4.95
2023-03-29T00:40:15.549Z,4.10
2023-03-29T00:42:49.068Z,4.32
2023-03-29T00:45:21.857Z,5.82
2023-03-29T00:47:57.257Z,4.72
2023-03-29T00:50:41.512Z,4.90
2023-03-29T00:53:15.202Z,4.82
2023-03-29T00:55:55.279Z,5.60
2023-03-29T00:58:53.112Z,8.07
2023-03-29T01:01:34.238Z,4.35
2023-03-29T01:04:08.916Z,4.15
2023-03-29T01:06:39.563Z,4.10
2023-03-29T01:09:12.766Z,3.60
2023-03-29T01:11:46.182Z,4.85
2023-03-29T01:14:26.949Z,5.68
2023-03-29T01:16:56.710Z,4.63
2023-03-29T01:19:30.489Z,4.68
2023-03-29T01:22:38.709Z,6.57
2023-03-29T01:25:50.995Z,5.03
2023-03-29T01:28:23.370Z,5.72
2023-03-29T01:31:09.365Z,6.00
2023-03-29T01:33:46.379Z,5.53
2023-03-29T01:36:35.070Z,6.00
2023-03-29T01:39:08.411Z,5.05
2023-03-29T01:41:52.581Z,5.00
2023-03-29T01:44:30.806Z,5.00
2023-03-29T01:47:23.189Z,4.70
2023-03-29T01:50:15.696Z,4.70
2023-03-29T01:52:57.830Z,4.55
2023-03-29T01:55:31.855Z,5.32
2023-03-29T01:58:03.482Z,5.43
2023-03-29T02:00:34.413Z,7.75
2023-03-29T02:03:08.449Z,5.68
2023-03-29T02:05:39.363Z,8.18
2023-03-29T02:08:11.037Z,5.55
2023-03-29T02:10:38.606Z,6.78
2023-03-29T02:13:06.327Z,6.20
2023-03-29T02:15:34.244Z,6.43
2023-03-29T02:18:04.238Z,6.07
2023-03-29T02:20:40.646Z,7.63
2023-03-29T02:23:14.591Z,7.10
2023-03-29T02:25:45.846Z,5.40
2023-03-29T02:28:14.686Z,6.28
2023-03-29T02:31:05.526Z,9.52
2023-03-29T02:33:57.249Z,5.82
2023-03-29T02:36:44.164Z,6.65
2023-03-29T02:39:15.859Z,6.05
2023-03-29T02:41:47.594Z,7.72
2023-03-29T02:44:28.261Z,7.10
2023-03-29T02:47:03.197Z,7.75
2023-03-29T02:49:59.100Z,6.55
2023-03-29T02:52:34.317Z,9.50
2023-03-29T02:55:06.811Z,6.78
2023-03-29T02:57:37.239Z,7.47
2023-03-29T03:00:10.386Z,7.38
2023-03-29T03:02:38.414Z,6.22
2023-03-29T03:05:09.274Z,6.80
2023-03-29T03:07:37.496Z,6.78
2023-03-29T03:10:05.568Z,9.68
2023-03-29T03:12:37.994Z,9.57
2023-03-29T03:15:06.736Z,9.07
2023-03-29T03:17:40.046Z,10.38
2023-03-29T03:20:13.038Z,7.05
2023-03-29T03:22:49.113Z,7.00
2023-03-29T03:25:19.557Z,8.23
2023-03-29T03:27:50.441Z,6.90
2023-03-29T03:30:21.636Z,12.15
2023-03-29T03:33:12.328Z,9.98
2023-03-29T03:38:33.000Z,7.68
2023-03-29T03:41:02.479Z,7.70
2023-03-29T03:43:34.233Z,8.63
2023-03-29T03:46:02.339Z,7.80
2023-03-29T03:48:31.689Z,9.55
2023-03-29T03:51:09.674Z,9.68
2023-03-29T03:53:37.237Z,10.57
2023-03-29T03:56:14.140Z,8.15
2023-03-29T03:59:01.197Z,8.98
2023-03-29T04:01:31.965Z,10.45
2023-03-29T04:04:07.000Z,9.45
2023-03-29T04:06:34.779Z,9.07
2023-03-29T04:09:31.362Z,12.73
2023-03-29T04:12:13.763Z,12.45
2023-03-29T04:14:48.828Z,8.35
2023-03-29T04:17:23.268Z,8.85
2023-03-29T04:20:15.124Z,11.23
2023-03-29T04:22:42.847Z,10.45
2023-03-29T04:25:11.830Z,10.40
2023-03-29T04:27:50.619Z,9.27
2023-03-29T04:30:36.057Z,10.10
2023-03-29T04:33:06.394Z,9.98
2023-03-29T04:35:35.198Z,10.07
2023-03-29T04:38:10.260Z,13.32
2023-03-29T04:40:38.901Z,10.98
2023-03-29T04:43:14.647Z,9.70
2023-03-29T04:45:54.292Z,11.98
2023-03-29T04:48:42.106Z,10.07
2023-03-29T04:51:09.949Z,8.40
2023-03-29T04:53:37.786Z,10.90
2023-03-29T04:56:08.188Z,9.85
2023-03-29T04:58:54.928Z,9.18
2023-03-29T05:01:48.807Z,14.07
2023-03-29T05:04:18.570Z,11.07
2023-03-29T05:07:02.271Z,9.35
2023-03-29T05:09:32.469Z,13.77
2023-03-29T05:12:02.351Z,12.73
2023-03-29T05:14:37.804Z,11.67
2023-03-29T05:17:06.643Z,9.52
2023-03-29T05:19:38.661Z,10.60
2023-03-29T05:22:09.409Z,8.55
2023-03-29T05:24:38.148Z,10.13
2023-03-29T05:27:17.289Z,9.48
2023-03-29T05:29:54.492Z,7.60
2023-03-29T05:32:27.705Z,8.15
2023-03-29T05:34:58.863Z,8.50
2023-03-29T05:37:27.523Z,8.40
2023-03-29T05:40:05.921Z,8.85
2023-03-29T05:42:39.779Z,9.20
2023-03-29T05:45:11.701Z,8.70
2023-03-29T05:47:41.871Z,9.02
2023-03-29T05:50:10.474Z,8.13
2023-03-29T05:52:38.907Z,9.13
2023-03-29T05:55:07.553Z,8.73
2023-03-29T05:57:38.854Z,8.00
2023-03-29T06:00:20.358Z,11.63
2023-03-29T06:02:48.189Z,9.70
2023-03-29T06:05:20.202Z,8.77
2023-03-29T06:08:01.881Z,12.13
2023-03-29T06:11:05.186Z,10.10
2023-03-29T06:14:08.328Z,11.63
2023-03-29T06:16:42.821Z,11.32
2023-03-29T06:19:11.593Z,12.45
2023-03-29T06:21:41.399Z,18.65
2023-03-29T06:24:11.168Z,15.35
2023-03-29T06:26:45.225Z,21.33
2023-03-29T06:29:13.350Z,18.55
2023-03-29T06:31:54.608Z,16.77
2023-03-29T06:34:45.289Z,21.35
2023-03-29T06:37:32.898Z,17.92
2023-03-29T06:40:24.815Z,14.55
2023-03-29T06:42:58.060Z,14.90
2023-03-29T06:45:44.918Z,18.30
2023-03-29T06:53:36.803Z,16.10
2023-03-29T06:56:09.465Z,8.18
2023-03-29T06:58:45.037Z,10.07
2023-03-29T07:04:04.952Z,13.95
2023-03-29T07:06:39.421Z,14.50
2023-03-29T07:09:13.088Z,12.63
2023-03-29T07:12:01.757Z,17.67
2023-03-29T07:14:30.999Z,22.15
2023-03-29T07:17:02.688Z,18.73
2023-03-29T07:19:35.232Z,13.98
2023-03-29T07:22:10.029Z,10.13
2023-03-29T07:24:51.533Z,9.20
2023-03-29T07:27:19.769Z,12.60
2023-03-29T07:29:51.702Z,10.15
2023-03-29T07:32:20.098Z,10.30
2023-03-29T07:35:09.048Z,8.85
2023-03-29T07:37:37.586Z,9.15
2023-03-29T07:40:18.402Z,9.88
2023-03-29T07:42:59.061Z,7.85
2023-03-29T07:45:31.123Z,7.70
2023-03-29T07:48:06.522Z,7.53
2023-03-29T07:50:49.037Z,8.40
2023-03-29T07:53:19.594Z,8.00
2023-03-29T07:55:49.250Z,7.35
2023-03-29T07:58:49.268Z,8.40
2023-03-29T08:01:20.034Z,9.07
2023-03-29T08:04:18.131Z,6.30
2023-03-29T08:07:04.113Z,8.68
2023-03-29T08:09:50.952Z,7.70
2023-03-29T08:12:20.146Z,8.13
2023-03-29T08:14:48.048Z,7.55
2023-03-29T08:17:26.991Z,7.05
2023-03-29T08:19:54.721Z,7.75
2023-03-29T08:22:24.898Z,7.15
2023-03-29T08:25:18.914Z,7.30
2023-03-29T08:27:50.394Z,7.97
2023-03-29T08:30:29.169Z,8.02
2023-03-29T08:32:58.241Z,5.85
2023-03-29T08:35:25.989Z,6.75
2023-03-29T08:38:08.445Z,6.13
2023-03-29T08:40:37.462Z,6.30
2023-03-29T08:44:04.602Z,6.95
2023-03-29T08:46:44.672Z,6.55
2023-03-29T08:49:27.666Z,4.75
2023-03-29T08:52:02.333Z,4.57
2023-03-29T08:54:44.457Z,4.80
2023-03-29T08:57:36.136Z,5.07
2023-03-29T09:00:29.421Z,5.28
2023-03-29T09:02:59.156Z,5.50
2023-03-29T09:05:28.915Z,5.47
2023-03-29T09:08:20.685Z,5.20
2023-03-29T09:11:17.524Z,7.18
2023-03-29T09:14:01.466Z,5.32
2023-03-29T09:16:33.617Z,5.47
2023-03-29T09:19:25.724Z,5.05
2023-03-29T09:22:03.205Z,5.22
2023-03-29T09:24:46.751Z,5.68
2023-03-29T09:27:54.414Z,5.60
2023-03-29T09:30:43.356Z,6.30
2023-03-29T09:33:37.462Z,5.32
2023-03-29T09:36:37.184Z,6.70
2023-03-29T09:39:05.802Z,5.75
2023-03-29T09:41:46.846Z,4.97
2023-03-29T09:44:30.253Z,7.13
2023-03-29T09:47:31.641Z,5.57
2023-03-29T09:50:23.156Z,6.05
2023-03-29T09:52:57.619Z,6.05
2023-03-29T09:55:29.528Z,5.60
2023-03-29T09:58:15.298Z,5.65
2023-03-29T10:00:50.750Z,6.97
2023-03-29T10:03:23.200Z,5.82
2023-03-29T10:06:16.116Z,5.97
2023-03-29T10:08:59.100Z,6.97
2023-03-29T10:11:39.959Z,8.20
2023-03-29T10:14:14.274Z,7.72
2023-03-29T10:16:52.743Z,10.10
2023-03-29T10:19:22.840Z,7.93
2023-03-29T10:21:53.056Z,6.60
2023-03-29T10:24:22.784Z,7.20
2023-03-29T10:27:02.757Z,6.30
2023-03-29T10:29:42.425Z,9.90
2023-03-29T10:32:23.380Z,7.75
2023-03-29T10:34:52.176Z,9.98
2023-03-29T10:37:21.285Z,7.07
2023-03-29T10:39:54.486Z,7.65
2023-03-29T10:42:24.801Z,9.73
2023-03-29T10:44:56.686Z,7.32
2023-03-29T10:47:24.996Z,6.25
2023-03-29T10:49:58.971Z,6.63
2023-03-29T10:52:26.713Z,7.47
2023-03-29T10:54:56.472Z,6.85
2023-03-29T10:57:57.757Z,5.35
2023-03-29T11:00:34.172Z,5.40
2023-03-29T11:03:26.253Z,8.80
2023-03-29T11:06:03.160Z,6.38
2023-03-29T11:08:54.416Z,5.70
2023-03-29T11:11:41.289Z,4.97
2023-03-29T11:14:32.899Z,5.63
2023-03-29T11:17:34.959Z,7.22
2023-03-29T11:20:29.654Z,10.75
2023-03-29T11:23:05.993Z,4.15
2023-03-29T11:25:45.979Z,5.00
2023-03-29T11:28:28.981Z,6.93
2023-03-29T11:31:13.446Z,8.10
2023-03-29T11:33:58.866Z,7.28
2023-03-29T11:36:38.071Z,7.40
2023-03-29T11:39:21.023Z,8.57
2023-03-29T11:41:53.122Z,9.27
2023-03-29T11:44:27.132Z,11.07
2023-03-29T11:47:07.317Z,9.07
2023-03-29T11:49:43.155Z,8.20
2023-03-29T11:52:19.715Z,7.38
2023-03-29T11:55:03.534Z,7.40
2023-03-29T11:57:36.817Z,8.68
2023-03-29T12:00:14.873Z,4.68
2023-03-29T12:02:48.616Z,6.18
2023-03-29T12:05:24.691Z,6.35
2023-03-29T12:07:58.186Z,5.93
2023-03-29T12:10:36.229Z,6.50
2023-03-29T12:13:15.335Z,6.35
2023-03-29T12:15:54.018Z,6.80
2023-03-29T12:18:27.450Z,5.78
2023-03-29T12:21:01.547Z,5.55
2023-03-29T12:23:32.711Z,7.68
2023-03-29T12:26:25.593Z,5.85
2023-03-29T12:29:12.258Z,5.35
2023-03-29T12:31:47.034Z,5.30
2023-03-29T12:34:35.116Z,5.47
2023-03-29T12:37:39.360Z,5.43
2023-03-29T12:40:28.940Z,7.18
2023-03-29T12:43:39.688Z,5.63
2023-03-29T12:46:35.516Z,5.32
2023-03-29T12:49:26.961Z,6.75
2023-03-29T12:51:57.282Z,6.53
2023-03-29T12:54:28.743Z,8.18
2023-03-29T12:57:01.225Z,6.53
2023-03-29T12:59:46.999Z,5.93
2023-03-29T13:04:55.325Z,6.15
2023-03-29T13:07:22.905Z,7.82
2023-03-29T13:09:56.542Z,4.65
2023-03-29T13:12:33.635Z,6.32
2023-03-29T13:15:06.103Z,4.90
2023-03-29T13:17:33.665Z,10.75
2023-03-29T13:20:01.884Z,5.00
2023-03-29T13:23:10.669Z,5.50
2023-03-29T13:25:40.298Z,6.47
2023-03-29T13:28:32.828Z,5.25
2023-03-29T13:31:06.480Z,6.53
2023-03-29T13:33:38.272Z,4.53
2023-03-29T13:36:38.475Z,5.25
2023-03-29T13:39:09.959Z,4.68
2023-03-29T13:41:40.437Z,6.68
2023-03-29T13:44:26.517Z,5.78
2023-03-29T13:47:29.460Z,5.05
2023-03-29T13:50:01.213Z,5.40
2023-03-29T13:52:36.531Z,9.93
2023-03-29T13:58:24.763Z,7.63
2023-03-29T14:01:07.621Z,6.38
2023-03-29T14:03:51.732Z,4.68
2023-03-29T14:06:33.389Z,4.28
2023-03-29T14:09:07.333Z,7.13
2023-03-29T14:11:35.321Z,7.18
2023-03-29T14:14:08.616Z,5.10
2023-03-29T14:16:42.093Z,8.45
2023-03-29T14:19:20.577Z,6.10
2023-03-29T14:21:52.689Z,6.25
2023-03-29T14:24:31.709Z,6.13
2023-03-29T14:27:06.410Z,10.77
2023-03-29T14:29:45.180Z,5.15
2023-03-29T14:32:16.767Z,7.40
2023-03-29T14:34:50.021Z,4.05
2023-03-29T14:37:25.438Z,5.70
2023-03-29T14:42:32.511Z,4.93
2023-03-29T14:45:14.253Z,6.45
2023-03-29T14:47:51.645Z,6.88
2023-03-29T14:50:29.152Z,5.75
2023-03-29T14:53:01.836Z,5.55
2023-03-29T14:55:32.530Z,4.97
2023-03-29T14:58:00.873Z,6.97
2023-03-29T15:00:38.725Z,5.88
2023-03-29T15:03:13.954Z,10.90
2023-03-29T15:05:46.917Z,8.25
2023-03-29T15:09:06.835Z,7.78
2023-03-29T15:18:49.532Z,11.68
2023-03-29T15:25:54.579Z,8.07
2023-03-29T15:28:37.343Z,6.50
2023-03-29T15:31:15.298Z,9.13
2023-03-29T15:33:50.150Z,8.15
2023-03-29T15:36:40.681Z,6.07
2023-03-29T15:43:36.200Z,5.47
2023-03-29T15:52:18.951Z,6.65
2023-03-29T15:56:01.018Z,6.90
2023-03-29T15:59:15.356Z,5.55
2023-03-29T16:05:20.397Z,12.50
2023-03-29T16:08:46.367Z,11.15
2023-03-29T16:17:42.586Z,10.32
2023-03-29T16:20:22.133Z,9.50
2023-03-29T16:22:54.311Z,5.70
2023-03-29T16:25:24.968Z,7.90
2023-03-29T16:27:57.523Z,10.00
2023-03-29T16:30:40.858Z,7.10
2023-03-29T16:33:14.618Z,9.48
2023-03-29T16:35:56.009Z,5.20
2023-03-29T16:38:45.079Z,9.07
2023-03-29T16:41:17.450Z,7.53
2023-03-29T16:43:51.858Z,7.70
2023-03-29T16:46:21.219Z,11.75
2023-03-29T16:48:54.507Z,10.10
2023-03-29T16:51:22.677Z,11.57
2023-03-29T16:53:53.404Z,10.77
2023-03-29T16:56:21.055Z,10.70
2023-03-29T16:58:48.694Z,9.23
2023-03-29T17:01:18.125Z,10.63
2023-03-29T17:03:45.790Z,7.85
2023-03-29T17:06:16.242Z,10.40
2023-03-29T17:08:44.513Z,8.98
2023-03-29T17:11:16.517Z,6.65
2023-03-29T17:13:54.636Z,5.88
2023-03-29T17:16:42.711Z,7.18
2023-03-29T17:19:20.914Z,10.35
2023-03-29T17:21:51.757Z,9.23
2023-03-29T17:24:19.530Z,8.68
2023-03-29T17:26:47.472Z,11.50
2023-03-29T17:29:18.955Z,8.00
2023-03-29T17:31:51.170Z,7.60
2023-03-29T17:34:24.259Z,8.00
2023-03-29T17:36:53.498Z,7.28
2023-03-29T17:39:25.563Z,7.50
2023-03-29T17:41:56.509Z,9.65
2023-03-29T17:44:24.285Z,11.05
2023-03-29T17:46:55.469Z,9.50
2023-03-29T17:49:28.735Z,8.93
2023-03-29T17:51:57.552Z,10.40
2023-03-29T17:54:25.545Z,9.10
2023-03-29T17:57:18.847Z,7.93
2023-03-29T17:59:47.224Z,11.23
2023-03-29T18:02:20.210Z,9.15
2023-03-29T18:04:50.220Z,10.90
2023-03-29T18:07:20.122Z,9.75
2023-03-29T18:09:47.795Z,12.82
2023-03-29T18:12:15.638Z,8.32
2023-03-29T18:14:43.237Z,10.82
2023-03-29T18:17:10.936Z,13.60
2023-03-29T18:19:43.016Z,10.80
2023-03-29T18:22:12.666Z,9.90
2023-03-29T18:24:42.061Z,10.75
2023-03-29T18:27:12.848Z,11.18
2023-03-29T18:29:40.984Z,13.15
2023-03-29T18:32:25.226Z,12.55
2023-03-29T18:34:52.885Z,10.15
2023-03-29T18:37:52.680Z,10.73
2023-03-29T18:40:32.098Z,10.35
2023-03-29T18:43:44.350Z,10.93
2023-03-29T18:46:21.176Z,8.77
2023-03-29T18:53:00.133Z,12.65
2023-03-29T19:14:52.912Z,13.43
2023-03-29T19:17:38.885Z,13.02
2023-03-29T19:26:27.218Z,12.30
2023-03-29T19:29:15.103Z,12.02
2023-03-29T19:31:56.831Z,9.40
2023-03-29T19:34:33.520Z,11.52
2023-03-29T19:37:11.134Z,14.35
2023-03-29T19:39:52.235Z,11.13
2023-03-29T19:42:49.613Z,13.57
2023-03-29T19:45:23.064Z,11.45
2023-03-29T19:48:02.946Z,13.68
2023-03-29T19:50:35.713Z,16.02
2023-03-29T19:53:09.915Z,13.82
2023-03-29T19:58:40.145Z,13.10
2023-03-29T20:01:16.832Z,17.83
2023-03-29T20:08:55.227Z,9.80
2023-03-29T20:11:27.135Z,12.23
2023-03-29T20:17:44.273Z,14.90
2023-03-29T20:21:57.816Z,14.07
2023-03-29T20:32:26.245Z,18.02
2023-03-29T20:38:30.859Z,16.13
2023-03-29T20:44:46.409Z,12.23
2023-03-29T20:49:30.697Z,10.40
2023-03-29T20:52:41.108Z,13.48
2023-03-29T21:07:19.615Z,13.45
2023-03-29T21:30:20.831Z,12.07
2023-03-29T21:32:51.258Z,16.05
2023-03-29T21:38:51.067Z,14.57
2023-03-29T21:41:22.202Z,12.80
2023-03-29T21:44:41.062Z,15.40
2023-03-29T21:48:15.082Z,11.65
2023-03-29T21:51:32.954Z,11.95
2023-03-29T21:54:03.106Z,13.75
2023-03-29T21:57:23.987Z,15.38
2023-03-29T21:59:51.964Z,15.15
2023-03-29T22:02:51.764Z,13.75
2023-03-29T22:05:20.688Z,14.90
2023-03-29T22:07:50.631Z,14.25
2023-03-29T22:10:22.988Z,13.43
2023-03-29T22:12:53.347Z,16.45
2023-03-29T22:15:21.120Z,13.10
2023-03-29T22:20:52.023Z,13.55
2023-03-29T22:23:22.300Z,12.07
2023-03-29T22:27:47.345Z,11.30
2023-03-29T22:35:24.957Z,14.43
2023-03-29T22:38:17.794Z,14.00
2023-03-29T22:42:06.838Z,14.25
2023-03-29T23:12:22.222Z,12.48
2023-03-29T23:14:55.897Z,11.60
2023-03-29T23:18:13.119Z,13.60
2023-03-29T23:21:19.583Z,13.18
2023-03-29T23:23:47.039Z,14.77
2023-03-29T23:26:37.934Z,16.27
2023-03-29T23:29:05.611Z,11.32
2023-03-29T23:35:53.729Z,17.77
2023-03-29T23:39:05.782Z,13.55
2023-03-29T23:41:33.500Z,13.07
2023-03-29T23:44:01.071Z,14.70
2023-03-29T23:46:29.611Z,15.38
2023-03-29T23:48:57.171Z,12.80
2023-03-29T23:51:45.136Z,14.35
2023-03-29T23:55:12.584Z,17.33
2023-03-29T23:58:25.125Z,15.75
